sensor_id;sensor_type;location;lat;lon;timestamp;temperature;humidity
14101;DHT22;7127;49.372;8.166;2023-07-20T00:01:32;25.10;36.10
14101;DHT22;7127;49.372;8.166;2023-07-20T00:03:58;25.10;36.20
14101;DHT22;7127;49.372;8.166;2023-07-20T00:06:25;25.00;36.20
14101;DHT22;7127;49.372;8.166;2023-07-20T00:08:54;25.10;36.30
14101;DHT22;7127;49.372;8.166;2023-07-20T00:11:26;25.00;36.30
14101;DHT22;7127;49.372;8.166;2023-07-20T00:13:53;24.80;36.20
14101;DHT22;7127;49.372;8.166;2023-07-20T00:16:20;24.90;36.40
14101;DHT22;7127;49.372;8.166;2023-07-20T00:18:47;24.90;36.50
14101;DHT22;7127;49.372;8.166;2023-07-20T00:21:14;24.80;36.50
14101;DHT22;7127;49.372;8.166;2023-07-20T00:23:41;24.80;36.60
14101;DHT22;7127;49.372;8.166;2023-07-20T00:26:09;24.80;36.50
14101;DHT22;7127;49.372;8.166;2023-07-20T00:28:36;24.70;36.60
14101;DHT22;7127;49.372;8.166;2023-07-20T00:31:04;24.60;36.60
14101;DHT22;7127;49.372;8.166;2023-07-20T00:33:31;24.60;36.70
14101;DHT22;7127;49.372;8.166;2023-07-20T00:35:58;24.60;36.80
14101;DHT22;7127;49.372;8.166;2023-07-20T00:38:25;24.50;37.00
14101;DHT22;7127;49.372;8.166;2023-07-20T00:40:52;24.40;37.00
14101;DHT22;7127;49.372;8.166;2023-07-20T00:43:20;24.40;36.90
14101;DHT22;7127;49.372;8.166;2023-07-20T00:45:47;24.50;37.10
14101;DHT22;7127;49.372;8.166;2023-07-20T00:48:14;24.40;37.20
14101;DHT22;7127;49.372;8.166;2023-07-20T00:50:41;24.30;37.30
14101;DHT22;7127;49.372;8.166;2023-07-20T00:53:09;24.30;37.30
14101;DHT22;7127;49.372;8.166;2023-07-20T00:55:36;24.20;37.40
14101;DHT22;7127;49.372;8.166;2023-07-20T00:58:03;24.30;37.60
14101;DHT22;7127;49.372;8.166;2023-07-20T01:00:31;24.10;37.50
14101;DHT22;7127;49.372;8.166;2023-07-20T01:02:58;24.10;37.50
14101;DHT22;7127;49.372;8.166;2023-07-20T01:05:34;24.00;37.70
14101;DHT22;7127;49.372;8.166;2023-07-20T01:08:07;24.00;37.90
14101;DHT22;7127;49.372;8.166;2023-07-20T01:10:40;23.90;37.90
14101;DHT22;7127;49.372;8.166;2023-07-20T01:13:09;24.00;38.10
14101;DHT22;7127;49.372;8.166;2023-07-20T01:15:38;23.80;38.00
14101;DHT22;7127;49.372;8.166;2023-07-20T01:18:04;23.80;38.00
14101;DHT22;7127;49.372;8.166;2023-07-20T01:20:32;23.70;38.00
14101;DHT22;7127;49.372;8.166;2023-07-20T01:23:28;23.70;38.10
14101;DHT22;7127;49.372;8.166;2023-07-20T01:26:10;23.70;38.60
14101;DHT22;7127;49.372;8.166;2023-07-20T01:29:04;23.60;38.60
14101;DHT22;7127;49.372;8.166;2023-07-20T01:31:38;23.60;38.70
14101;DHT22;7127;49.372;8.166;2023-07-20T01:34:08;23.60;38.40
14101;DHT22;7127;49.372;8.166;2023-07-20T01:36:37;23.60;38.60
14101;DHT22;7127;49.372;8.166;2023-07-20T01:39:06;23.50;38.60
14101;DHT22;7127;49.372;8.166;2023-07-20T01:41:33;23.50;38.70
14101;DHT22;7127;49.372;8.166;2023-07-20T01:44:03;23.40;38.70
14101;DHT22;7127;49.372;8.166;2023-07-20T01:46:29;23.40;38.70
14101;DHT22;7127;49.372;8.166;2023-07-20T01:48:58;23.50;38.80
14101;DHT22;7127;49.372;8.166;2023-07-20T01:51:25;23.40;38.90
14101;DHT22;7127;49.372;8.166;2023-07-20T01:53:51;23.40;38.90
14101;DHT22;7127;49.372;8.166;2023-07-20T01:56:18;23.40;39.00
14101;DHT22;7127;49.372;8.166;2023-07-20T01:58:45;23.30;39.10
14101;DHT22;7127;49.372;8.166;2023-07-20T02:01:12;23.30;39.20
14101;DHT22;7127;49.372;8.166;2023-07-20T02:03:38;23.30;39.10
14101;DHT22;7127;49.372;8.166;2023-07-20T02:06:07;23.20;39.10
14101;DHT22;7127;49.372;8.166;2023-07-20T02:08:33;23.20;39.10
14101;DHT22;7127;49.372;8.166;2023-07-20T02:11:00;23.10;39.10
14101;DHT22;7127;49.372;8.166;2023-07-20T02:13:28;23.20;39.10
14101;DHT22;7127;49.372;8.166;2023-07-20T02:15:54;23.20;39.20
14101;DHT22;7127;49.372;8.166;2023-07-20T02:18:21;23.20;39.40
14101;DHT22;7127;49.372;8.166;2023-07-20T02:20:48;23.10;39.40
14101;DHT22;7127;49.372;8.166;2023-07-20T02:23:16;23.20;39.50
14101;DHT22;7127;49.372;8.166;2023-07-20T02:25:43;23.10;39.80
14101;DHT22;7127;49.372;8.166;2023-07-20T02:28:12;23.10;39.60
14101;DHT22;7127;49.372;8.166;2023-07-20T02:30:39;23.10;39.70
14101;DHT22;7127;49.372;8.166;2023-07-20T02:33:07;23.00;39.70
14101;DHT22;7127;49.372;8.166;2023-07-20T02:35:34;23.00;39.60
14101;DHT22;7127;49.372;8.166;2023-07-20T02:38:01;23.00;39.80
14101;DHT22;7127;49.372;8.166;2023-07-20T02:40:30;23.00;39.90
14101;DHT22;7127;49.372;8.166;2023-07-20T02:42:56;23.10;39.90
14101;DHT22;7127;49.372;8.166;2023-07-20T02:45:23;22.90;40.00
14101;DHT22;7127;49.372;8.166;2023-07-20T02:47:50;23.00;40.00
14101;DHT22;7127;49.372;8.166;2023-07-20T02:50:17;22.90;40.00
14101;DHT22;7127;49.372;8.166;2023-07-20T02:52:44;22.90;40.30
14101;DHT22;7127;49.372;8.166;2023-07-20T02:55:11;22.80;40.10
14101;DHT22;7127;49.372;8.166;2023-07-20T02:57:39;22.80;40.10
14101;DHT22;7127;49.372;8.166;2023-07-20T03:00:07;22.80;40.40
14101;DHT22;7127;49.372;8.166;2023-07-20T03:02:34;22.80;40.40
14101;DHT22;7127;49.372;8.166;2023-07-20T03:05:01;22.80;40.30
14101;DHT22;7127;49.372;8.166;2023-07-20T03:07:31;22.70;40.30
14101;DHT22;7127;49.372;8.166;2023-07-20T03:09:58;22.70;40.30
14101;DHT22;7127;49.372;8.166;2023-07-20T03:12:24;22.70;40.70
14101;DHT22;7127;49.372;8.166;2023-07-20T03:14:53;22.80;40.70
14101;DHT22;7127;49.372;8.166;2023-07-20T03:17:22;22.60;41.60
14101;DHT22;7127;49.372;8.166;2023-07-20T03:19:49;22.50;40.70
14101;DHT22;7127;49.372;8.166;2023-07-20T03:22:16;22.50;40.90
14101;DHT22;7127;49.372;8.166;2023-07-20T03:24:43;22.40;40.70
14101;DHT22;7127;49.372;8.166;2023-07-20T03:27:09;22.40;40.90
14101;DHT22;7127;49.372;8.166;2023-07-20T03:29:36;22.30;40.80
14101;DHT22;7127;49.372;8.166;2023-07-20T03:32:05;22.30;40.90
14101;DHT22;7127;49.372;8.166;2023-07-20T03:34:32;22.30;41.10
14101;DHT22;7127;49.372;8.166;2023-07-20T03:36:59;22.40;41.20
14101;DHT22;7127;49.372;8.166;2023-07-20T03:39:26;22.30;41.20
14101;DHT22;7127;49.372;8.166;2023-07-20T03:41:53;22.50;41.30
14101;DHT22;7127;49.372;8.166;2023-07-20T03:44:20;22.20;41.10
14101;DHT22;7127;49.372;8.166;2023-07-20T03:46:47;22.20;41.20
14101;DHT22;7127;49.372;8.166;2023-07-20T03:49:15;22.20;41.20
14101;DHT22;7127;49.372;8.166;2023-07-20T03:51:41;22.20;41.20
14101;DHT22;7127;49.372;8.166;2023-07-20T03:54:08;22.30;41.30
14101;DHT22;7127;49.372;8.166;2023-07-20T03:56:35;22.20;42.00
14101;DHT22;7127;49.372;8.166;2023-07-20T03:59:02;22.20;41.40
14101;DHT22;7127;49.372;8.166;2023-07-20T04:01:29;22.20;41.40
14101;DHT22;7127;49.372;8.166;2023-07-20T04:04:04;22.10;41.40
14101;DHT22;7127;49.372;8.166;2023-07-20T04:06:32;22.10;41.40
14101;DHT22;7127;49.372;8.166;2023-07-20T04:08:59;22.10;41.40
14101;DHT22;7127;49.372;8.166;2023-07-20T04:11:26;22.10;41.40
14101;DHT22;7127;49.372;8.166;2023-07-20T04:13:52;22.10;41.40
14101;DHT22;7127;49.372;8.166;2023-07-20T04:16:19;22.10;41.40
14101;DHT22;7127;49.372;8.166;2023-07-20T04:18:46;22.10;41.40
14101;DHT22;7127;49.372;8.166;2023-07-20T04:21:13;22.10;41.60
14101;DHT22;7127;49.372;8.166;2023-07-20T04:23:41;22.00;41.60
14101;DHT22;7127;49.372;8.166;2023-07-20T04:26:08;22.10;41.70
14101;DHT22;7127;49.372;8.166;2023-07-20T04:28:35;22.30;41.90
14101;DHT22;7127;49.372;8.166;2023-07-20T04:31:11;22.10;41.80
14101;DHT22;7127;49.372;8.166;2023-07-20T04:33:38;22.10;42.20
14101;DHT22;7127;49.372;8.166;2023-07-20T04:36:05;22.00;42.00
14101;DHT22;7127;49.372;8.166;2023-07-20T04:38:33;22.10;42.20
14101;DHT22;7127;49.372;8.166;2023-07-20T04:41:01;22.10;42.20
14101;DHT22;7127;49.372;8.166;2023-07-20T04:43:29;22.00;42.20
14101;DHT22;7127;49.372;8.166;2023-07-20T04:45:56;22.10;42.30
14101;DHT22;7127;49.372;8.166;2023-07-20T04:48:23;22.10;42.30
14101;DHT22;7127;49.372;8.166;2023-07-20T04:50:50;22.00;42.20
14101;DHT22;7127;49.372;8.166;2023-07-20T04:53:17;22.10;42.30
14101;DHT22;7127;49.372;8.166;2023-07-20T04:55:48;22.10;42.40
14101;DHT22;7127;49.372;8.166;2023-07-20T04:58:19;22.10;42.50
14101;DHT22;7127;49.372;8.166;2023-07-20T05:00:45;22.20;42.60
14101;DHT22;7127;49.372;8.166;2023-07-20T05:03:12;22.10;42.50
14101;DHT22;7127;49.372;8.166;2023-07-20T05:05:39;22.20;42.50
14101;DHT22;7127;49.372;8.166;2023-07-20T05:08:06;22.20;42.50
14101;DHT22;7127;49.372;8.166;2023-07-20T05:10:33;22.30;42.70
14101;DHT22;7127;49.372;8.166;2023-07-20T05:13:00;22.30;42.70
14101;DHT22;7127;49.372;8.166;2023-07-20T05:15:28;22.30;42.70
14101;DHT22;7127;49.372;8.166;2023-07-20T05:17:56;22.30;42.70
14101;DHT22;7127;49.372;8.166;2023-07-20T05:20:23;22.40;42.70
14101;DHT22;7127;49.372;8.166;2023-07-20T05:22:49;22.40;42.70
14101;DHT22;7127;49.372;8.166;2023-07-20T05:25:16;22.40;42.60
14101;DHT22;7127;49.372;8.166;2023-07-20T05:27:45;22.50;42.70
14101;DHT22;7127;49.372;8.166;2023-07-20T05:30:12;22.60;42.80
14101;DHT22;7127;49.372;8.166;2023-07-20T05:32:40;22.60;42.80
14101;DHT22;7127;49.372;8.166;2023-07-20T05:35:08;22.60;42.90
14101;DHT22;7127;49.372;8.166;2023-07-20T05:37:37;22.60;42.90
14101;DHT22;7127;49.372;8.166;2023-07-20T05:40:05;22.70;42.90
14101;DHT22;7127;49.372;8.166;2023-07-20T05:42:33;22.70;42.90
14101;DHT22;7127;49.372;8.166;2023-07-20T05:45:00;22.70;42.90
14101;DHT22;7127;49.372;8.166;2023-07-20T05:47:27;22.80;43.00
14101;DHT22;7127;49.372;8.166;2023-07-20T05:49:55;22.90;43.00
14101;DHT22;7127;49.372;8.166;2023-07-20T05:52:22;22.90;43.00
14101;DHT22;7127;49.372;8.166;2023-07-20T05:54:49;22.90;42.80
14101;DHT22;7127;49.372;8.166;2023-07-20T05:57:16;23.00;42.90
14101;DHT22;7127;49.372;8.166;2023-07-20T05:59:43;23.00;42.80
14101;DHT22;7127;49.372;8.166;2023-07-20T06:02:10;23.00;43.00
14101;DHT22;7127;49.372;8.166;2023-07-20T06:04:36;23.00;42.80
14101;DHT22;7127;49.372;8.166;2023-07-20T06:07:06;23.10;43.00
14101;DHT22;7127;49.372;8.166;2023-07-20T06:09:33;23.10;42.90
14101;DHT22;7127;49.372;8.166;2023-07-20T06:12:00;23.20;43.00
14101;DHT22;7127;49.372;8.166;2023-07-20T06:14:27;23.20;43.00
14101;DHT22;7127;49.372;8.166;2023-07-20T06:16:54;23.10;42.90
14101;DHT22;7127;49.372;8.166;2023-07-20T06:19:21;23.30;43.10
14101;DHT22;7127;49.372;8.166;2023-07-20T06:21:48;23.30;43.10
14101;DHT22;7127;49.372;8.166;2023-07-20T06:24:17;23.40;43.10
14101;DHT22;7127;49.372;8.166;2023-07-20T06:26:44;23.40;43.10
14101;DHT22;7127;49.372;8.166;2023-07-20T06:29:11;23.50;43.70
14101;DHT22;7127;49.372;8.166;2023-07-20T06:31:38;23.50;43.10
14101;DHT22;7127;49.372;8.166;2023-07-20T06:34:04;23.50;43.10
14101;DHT22;7127;49.372;8.166;2023-07-20T06:36:31;23.60;43.20
14101;DHT22;7127;49.372;8.166;2023-07-20T06:38:58;23.60;43.10
14101;DHT22;7127;49.372;8.166;2023-07-20T06:41:26;23.70;43.20
14101;DHT22;7127;49.372;8.166;2023-07-20T06:43:53;23.70;43.10
14101;DHT22;7127;49.372;8.166;2023-07-20T06:46:24;23.80;43.20
14101;DHT22;7127;49.372;8.166;2023-07-20T06:48:51;23.80;43.10
14101;DHT22;7127;49.372;8.166;2023-07-20T06:51:18;23.90;43.20
14101;DHT22;7127;49.372;8.166;2023-07-20T06:53:44;24.00;43.10
14101;DHT22;7127;49.372;8.166;2023-07-20T06:56:11;24.10;43.10
14101;DHT22;7127;49.372;8.166;2023-07-20T06:58:40;24.10;43.00
14101;DHT22;7127;49.372;8.166;2023-07-20T07:01:07;24.10;43.00
14101;DHT22;7127;49.372;8.166;2023-07-20T07:03:34;24.20;43.70
14101;DHT22;7127;49.372;8.166;2023-07-20T07:06:02;24.20;43.70
14101;DHT22;7127;49.372;8.166;2023-07-20T07:08:29;24.30;43.20
14101;DHT22;7127;49.372;8.166;2023-07-20T07:10:56;24.30;43.00
14101;DHT22;7127;49.372;8.166;2023-07-20T07:13:22;24.40;43.10
14101;DHT22;7127;49.372;8.166;2023-07-20T07:15:51;24.50;43.10
14101;DHT22;7127;49.372;8.166;2023-07-20T07:18:18;24.60;43.10
14101;DHT22;7127;49.372;8.166;2023-07-20T07:20:55;24.70;43.10
14101;DHT22;7127;49.372;8.166;2023-07-20T07:23:21;24.80;43.60
14101;DHT22;7127;49.372;8.166;2023-07-20T07:25:48;24.90;42.80
14101;DHT22;7127;49.372;8.166;2023-07-20T07:28:15;25.00;42.70
14101;DHT22;7127;49.372;8.166;2023-07-20T07:30:42;25.00;42.50
14101;DHT22;7127;49.372;8.166;2023-07-20T07:33:10;25.10;42.50
14101;DHT22;7127;49.372;8.166;2023-07-20T07:35:38;25.20;42.40
14101;DHT22;7127;49.372;8.166;2023-07-20T07:38:05;25.30;42.90
14101;DHT22;7127;49.372;8.166;2023-07-20T07:40:32;25.30;42.10
14101;DHT22;7127;49.372;8.166;2023-07-20T07:42:58;25.20;41.80
14101;DHT22;7127;49.372;8.166;2023-07-20T07:45:25;25.30;41.80
14101;DHT22;7127;49.372;8.166;2023-07-20T07:47:52;25.30;41.80
14101;DHT22;7127;49.372;8.166;2023-07-20T07:50:20;25.30;41.80
14101;DHT22;7127;49.372;8.166;2023-07-20T07:52:47;25.40;41.70
14101;DHT22;7127;49.372;8.166;2023-07-20T07:55:14;25.40;41.70
14101;DHT22;7127;49.372;8.166;2023-07-20T07:57:43;25.40;41.60
14101;DHT22;7127;49.372;8.166;2023-07-20T08:00:11;25.60;41.70
14101;DHT22;7127;49.372;8.166;2023-07-20T08:02:41;25.50;41.50
14101;DHT22;7127;49.372;8.166;2023-07-20T08:05:08;25.60;41.30
14101;DHT22;7127;49.372;8.166;2023-07-20T08:07:36;25.60;41.20
14101;DHT22;7127;49.372;8.166;2023-07-20T08:10:04;25.60;41.10
14101;DHT22;7127;49.372;8.166;2023-07-20T08:12:31;25.60;40.90
14101;DHT22;7127;49.372;8.166;2023-07-20T08:14:58;25.70;41.00
14101;DHT22;7127;49.372;8.166;2023-07-20T08:17:25;25.70;40.70
14101;DHT22;7127;49.372;8.166;2023-07-20T08:19:52;25.80;40.60
14101;DHT22;7127;49.372;8.166;2023-07-20T08:22:19;25.80;40.60
14101;DHT22;7127;49.372;8.166;2023-07-20T08:24:47;25.80;40.70
14101;DHT22;7127;49.372;8.166;2023-07-20T08:27:14;25.90;40.90
14101;DHT22;7127;49.372;8.166;2023-07-20T08:29:40;26.00;40.80
14101;DHT22;7127;49.372;8.166;2023-07-20T08:32:08;26.10;40.80
14101;DHT22;7127;49.372;8.166;2023-07-20T08:34:34;26.20;40.80
14101;DHT22;7127;49.372;8.166;2023-07-20T08:37:01;26.30;40.80
14101;DHT22;7127;49.372;8.166;2023-07-20T08:39:28;26.40;40.60
14101;DHT22;7127;49.372;8.166;2023-07-20T08:41:59;26.50;40.50
14101;DHT22;7127;49.372;8.166;2023-07-20T08:44:31;26.50;40.10
14101;DHT22;7127;49.372;8.166;2023-07-20T08:47:00;26.60;40.00
14101;DHT22;7127;49.372;8.166;2023-07-20T08:49:28;26.70;40.00
14101;DHT22;7127;49.372;8.166;2023-07-20T08:51:56;26.80;39.90
14101;DHT22;7127;49.372;8.166;2023-07-20T08:54:24;26.90;39.90
14101;DHT22;7127;49.372;8.166;2023-07-20T08:56:57;26.90;39.80
14101;DHT22;7127;49.372;8.166;2023-07-20T08:59:24;27.00;39.70
14101;DHT22;7127;49.372;8.166;2023-07-20T09:01:52;27.10;39.50
14101;DHT22;7127;49.372;8.166;2023-07-20T09:04:19;27.10;39.20
14101;DHT22;7127;49.372;8.166;2023-07-20T09:06:47;27.10;39.00
14101;DHT22;7127;49.372;8.166;2023-07-20T09:09:15;27.30;38.90
14101;DHT22;7127;49.372;8.166;2023-07-20T09:11:42;27.10;38.60
14101;DHT22;7127;49.372;8.166;2023-07-20T09:14:10;27.10;38.40
14101;DHT22;7127;49.372;8.166;2023-07-20T09:16:47;27.20;38.30
14101;DHT22;7127;49.372;8.166;2023-07-20T09:19:15;27.30;37.80
14101;DHT22;7127;49.372;8.166;2023-07-20T09:21:44;27.20;38.10
14101;DHT22;7127;49.372;8.166;2023-07-20T09:24:12;27.30;38.10
14101;DHT22;7127;49.372;8.166;2023-07-20T09:26:43;27.20;37.90
14101;DHT22;7127;49.372;8.166;2023-07-20T09:29:12;27.30;37.80
14101;DHT22;7127;49.372;8.166;2023-07-20T09:31:38;27.40;37.80
14101;DHT22;7127;49.372;8.166;2023-07-20T09:34:06;27.40;37.80
14101;DHT22;7127;49.372;8.166;2023-07-20T09:36:34;27.30;37.50
14101;DHT22;7127;49.372;8.166;2023-07-20T09:39:02;27.40;37.40
14101;DHT22;7127;49.372;8.166;2023-07-20T09:41:39;27.40;37.40
14101;DHT22;7127;49.372;8.166;2023-07-20T09:44:07;27.50;37.20
14101;DHT22;7127;49.372;8.166;2023-07-20T09:46:43;27.50;37.30
14101;DHT22;7127;49.372;8.166;2023-07-20T09:49:11;27.60;37.30
14101;DHT22;7127;49.372;8.166;2023-07-20T09:51:38;27.60;37.40
14101;DHT22;7127;49.372;8.166;2023-07-20T09:54:06;27.70;37.40
14101;DHT22;7127;49.372;8.166;2023-07-20T09:56:35;27.80;37.40
14101;DHT22;7127;49.372;8.166;2023-07-20T09:59:03;27.80;37.10
14101;DHT22;7127;49.372;8.166;2023-07-20T10:01:30;27.90;37.10
14101;DHT22;7127;49.372;8.166;2023-07-20T10:04:03;27.90;37.00
14101;DHT22;7127;49.372;8.166;2023-07-20T10:06:32;28.00;37.10
14101;DHT22;7127;49.372;8.166;2023-07-20T10:09:02;28.10;37.20
14101;DHT22;7127;49.372;8.166;2023-07-20T10:11:31;28.30;37.10
14101;DHT22;7127;49.372;8.166;2023-07-20T10:14:03;28.40;37.00
14101;DHT22;7127;49.372;8.166;2023-07-20T10:16:34;28.50;36.60
14101;DHT22;7127;49.372;8.166;2023-07-20T10:19:05;28.60;36.60
14101;DHT22;7127;49.372;8.166;2023-07-20T10:21:35;28.70;36.20
14101;DHT22;7127;49.372;8.166;2023-07-20T10:24:04;28.80;36.10
14101;DHT22;7127;49.372;8.166;2023-07-20T10:26:31;28.80;35.90
14101;DHT22;7127;49.372;8.166;2023-07-20T10:28:59;29.00;35.90
14101;DHT22;7127;49.372;8.166;2023-07-20T10:31:26;29.00;35.60
14101;DHT22;7127;49.372;8.166;2023-07-20T10:33:55;29.10;36.00
14101;DHT22;7127;49.372;8.166;2023-07-20T10:36:26;29.10;35.40
14101;DHT22;7127;49.372;8.166;2023-07-20T10:38:54;29.20;35.20
14101;DHT22;7127;49.372;8.166;2023-07-20T10:41:27;29.20;35.30
14101;DHT22;7127;49.372;8.166;2023-07-20T10:43:58;29.30;35.30
14101;DHT22;7127;49.372;8.166;2023-07-20T10:46:36;29.40;35.00
14101;DHT22;7127;49.372;8.166;2023-07-20T10:49:08;29.50;34.70
14101;DHT22;7127;49.372;8.166;2023-07-20T10:51:40;29.50;34.80
14101;DHT22;7127;49.372;8.166;2023-07-20T10:54:09;29.70;34.60
14101;DHT22;7127;49.372;8.166;2023-07-20T10:56:36;29.80;34.40
14101;DHT22;7127;49.372;8.166;2023-07-20T10:59:17;29.90;34.00
14101;DHT22;7127;49.372;8.166;2023-07-20T11:01:47;29.90;33.60
14101;DHT22;7127;49.372;8.166;2023-07-20T11:04:15;30.00;33.90
14101;DHT22;7127;49.372;8.166;2023-07-20T11:06:44;30.00;33.80
14101;DHT22;7127;49.372;8.166;2023-07-20T11:09:13;30.10;33.40
14101;DHT22;7127;49.372;8.166;2023-07-20T11:11:41;30.30;33.30
14101;DHT22;7127;49.372;8.166;2023-07-20T11:14:09;30.10;33.50
14101;DHT22;7127;49.372;8.166;2023-07-20T11:16:39;30.30;32.50
14101;DHT22;7127;49.372;8.166;2023-07-20T11:19:14;30.20;31.90
14101;DHT22;7127;49.372;8.166;2023-07-20T11:21:45;30.10;31.50
14101;DHT22;7127;49.372;8.166;2023-07-20T11:24:12;30.10;31.70
14101;DHT22;7127;49.372;8.166;2023-07-20T11:26:46;30.00;31.70
14101;DHT22;7127;49.372;8.166;2023-07-20T11:29:14;30.00;31.10
14101;DHT22;7127;49.372;8.166;2023-07-20T11:31:43;29.80;31.30
14101;DHT22;7127;49.372;8.166;2023-07-20T11:34:11;29.90;31.40
14101;DHT22;7127;49.372;8.166;2023-07-20T11:36:39;29.80;31.40
14101;DHT22;7127;49.372;8.166;2023-07-20T11:39:08;29.70;31.40
14101;DHT22;7127;49.372;8.166;2023-07-20T11:41:35;29.70;31.40
14101;DHT22;7127;49.372;8.166;2023-07-20T11:44:04;29.80;31.50
14101;DHT22;7127;49.372;8.166;2023-07-20T11:46:32;29.70;31.50
14101;DHT22;7127;49.372;8.166;2023-07-20T11:48:59;29.70;31.50
14101;DHT22;7127;49.372;8.166;2023-07-20T11:51:27;29.70;31.50
14101;DHT22;7127;49.372;8.166;2023-07-20T11:53:54;29.70;31.50
14101;DHT22;7127;49.372;8.166;2023-07-20T11:56:24;29.70;31.50
14101;DHT22;7127;49.372;8.166;2023-07-20T11:58:53;29.80;31.40
14101;DHT22;7127;49.372;8.166;2023-07-20T12:01:20;29.70;31.30
14101;DHT22;7127;49.372;8.166;2023-07-20T12:03:48;29.80;31.30
14101;DHT22;7127;49.372;8.166;2023-07-20T12:06:15;29.90;31.20
14101;DHT22;7127;49.372;8.166;2023-07-20T12:08:43;30.00;31.10
14101;DHT22;7127;49.372;8.166;2023-07-20T12:11:10;29.90;30.80
14101;DHT22;7127;49.372;8.166;2023-07-20T12:13:42;29.90;30.70
14101;DHT22;7127;49.372;8.166;2023-07-20T12:16:11;29.90;30.70
14101;DHT22;7127;49.372;8.166;2023-07-20T12:18:38;29.90;30.50
14101;DHT22;7127;49.372;8.166;2023-07-20T12:21:06;29.80;30.60
14101;DHT22;7127;49.372;8.166;2023-07-20T12:23:37;29.90;30.70
14101;DHT22;7127;49.372;8.166;2023-07-20T12:26:06;29.80;30.30
14101;DHT22;7127;49.372;8.166;2023-07-20T12:28:39;29.80;30.00
14101;DHT22;7127;49.372;8.166;2023-07-20T12:31:08;29.90;30.00
14101;DHT22;7127;49.372;8.166;2023-07-20T12:33:36;29.90;30.00
14101;DHT22;7127;49.372;8.166;2023-07-20T12:36:04;29.90;30.10
14101;DHT22;7127;49.372;8.166;2023-07-20T12:38:31;30.00;30.10
14101;DHT22;7127;49.372;8.166;2023-07-20T12:41:00;30.10;30.20
14101;DHT22;7127;49.372;8.166;2023-07-20T12:43:27;30.20;30.00
14101;DHT22;7127;49.372;8.166;2023-07-20T12:45:56;30.20;30.00
14101;DHT22;7127;49.372;8.166;2023-07-20T12:48:23;30.40;30.00
14101;DHT22;7127;49.372;8.166;2023-07-20T12:50:49;30.40;29.90
14101;DHT22;7127;49.372;8.166;2023-07-20T12:53:17;30.50;29.90
14101;DHT22;7127;49.372;8.166;2023-07-20T12:55:44;30.60;29.90
14101;DHT22;7127;49.372;8.166;2023-07-20T12:58:11;30.60;29.60
14101;DHT22;7127;49.372;8.166;2023-07-20T13:00:38;30.60;29.40
14101;DHT22;7127;49.372;8.166;2023-07-20T13:03:06;30.80;28.90
14101;DHT22;7127;49.372;8.166;2023-07-20T13:05:34;30.70;28.50
14101;DHT22;7127;49.372;8.166;2023-07-20T13:08:01;30.70;28.50
14101;DHT22;7127;49.372;8.166;2023-07-20T13:10:28;30.70;28.60
14101;DHT22;7127;49.372;8.166;2023-07-20T13:12:55;30.70;28.80
14101;DHT22;7127;49.372;8.166;2023-07-20T13:15:29;30.70;28.80
14101;DHT22;7127;49.372;8.166;2023-07-20T13:17:56;30.80;28.90
14101;DHT22;7127;49.372;8.166;2023-07-20T13:20:25;30.90;29.00
14101;DHT22;7127;49.372;8.166;2023-07-20T13:22:52;30.90;29.00
14101;DHT22;7127;49.372;8.166;2023-07-20T13:25:19;31.00;28.70
14101;DHT22;7127;49.372;8.166;2023-07-20T13:27:46;31.10;28.70
14101;DHT22;7127;49.372;8.166;2023-07-20T13:30:13;31.10;28.30
14101;DHT22;7127;49.372;8.166;2023-07-20T13:32:42;31.10;28.10
14101;DHT22;7127;49.372;8.166;2023-07-20T13:35:09;31.10;28.10
14101;DHT22;7127;49.372;8.166;2023-07-20T13:37:37;31.00;28.00
14101;DHT22;7127;49.372;8.166;2023-07-20T13:40:05;31.10;28.20
14101;DHT22;7127;49.372;8.166;2023-07-20T13:42:32;30.90;28.20
14101;DHT22;7127;49.372;8.166;2023-07-20T13:44:59;30.90;28.10
14101;DHT22;7127;49.372;8.166;2023-07-20T13:47:26;31.00;27.90
14101;DHT22;7127;49.372;8.166;2023-07-20T13:49:53;30.80;28.30
14101;DHT22;7127;49.372;8.166;2023-07-20T13:52:21;30.70;28.00
14101;DHT22;7127;49.372;8.166;2023-07-20T13:54:49;30.70;28.20
14101;DHT22;7127;49.372;8.166;2023-07-20T13:57:16;30.70;28.40
14101;DHT22;7127;49.372;8.166;2023-07-20T13:59:46;30.50;28.40
14101;DHT22;7127;49.372;8.166;2023-07-20T14:02:14;30.60;28.60
14101;DHT22;7127;49.372;8.166;2023-07-20T14:04:41;30.60;28.70
14101;DHT22;7127;49.372;8.166;2023-07-20T14:07:08;30.30;28.60
14101;DHT22;7127;49.372;8.166;2023-07-20T14:09:35;30.40;28.70
14101;DHT22;7127;49.372;8.166;2023-07-20T14:12:04;30.50;28.80
14101;DHT22;7127;49.372;8.166;2023-07-20T14:14:31;30.40;28.70
14101;DHT22;7127;49.372;8.166;2023-07-20T14:16:58;30.40;28.80
14101;DHT22;7127;49.372;8.166;2023-07-20T14:19:25;30.40;28.80
14101;DHT22;7127;49.372;8.166;2023-07-20T14:21:51;30.40;28.70
14101;DHT22;7127;49.372;8.166;2023-07-20T14:24:18;30.40;28.80
14101;DHT22;7127;49.372;8.166;2023-07-20T14:26:45;30.40;28.70
14101;DHT22;7127;49.372;8.166;2023-07-20T14:29:15;30.40;28.70
14101;DHT22;7127;49.372;8.166;2023-07-20T14:31:43;30.40;28.70
14101;DHT22;7127;49.372;8.166;2023-07-20T14:34:10;30.40;28.80
14101;DHT22;7127;49.372;8.166;2023-07-20T14:36:37;30.40;28.70
14101;DHT22;7127;49.372;8.166;2023-07-20T14:39:03;30.40;28.60
14101;DHT22;7127;49.372;8.166;2023-07-20T14:41:30;30.40;29.10
14101;DHT22;7127;49.372;8.166;2023-07-20T14:43:57;30.40;28.70
14101;DHT22;7127;49.372;8.166;2023-07-20T14:46:26;30.30;28.60
14101;DHT22;7127;49.372;8.166;2023-07-20T14:48:53;30.60;28.70
14101;DHT22;7127;49.372;8.166;2023-07-20T14:51:19;30.60;28.70
14101;DHT22;7127;49.372;8.166;2023-07-20T14:53:46;30.50;28.60
14101;DHT22;7127;49.372;8.166;2023-07-20T14:56:13;30.50;28.60
14101;DHT22;7127;49.372;8.166;2023-07-20T14:58:40;30.50;28.60
14101;DHT22;7127;49.372;8.166;2023-07-20T15:01:07;30.50;28.50
14101;DHT22;7127;49.372;8.166;2023-07-20T15:03:35;30.50;28.40
14101;DHT22;7127;49.372;8.166;2023-07-20T15:06:02;30.60;28.40
14101;DHT22;7127;49.372;8.166;2023-07-20T15:08:30;30.60;28.30
14101;DHT22;7127;49.372;8.166;2023-07-20T15:10:57;30.60;28.30
14101;DHT22;7127;49.372;8.166;2023-07-20T15:13:23;30.60;28.30
14101;DHT22;7127;49.372;8.166;2023-07-20T15:15:51;30.70;28.30
14101;DHT22;7127;49.372;8.166;2023-07-20T15:18:17;30.70;28.30
14101;DHT22;7127;49.372;8.166;2023-07-20T15:20:46;30.70;28.20
14101;DHT22;7127;49.372;8.166;2023-07-20T15:23:13;30.80;28.20
14101;DHT22;7127;49.372;8.166;2023-07-20T15:25:40;30.80;28.20
14101;DHT22;7127;49.372;8.166;2023-07-20T15:28:07;30.90;28.20
14101;DHT22;7127;49.372;8.166;2023-07-20T15:30:34;30.70;28.00
14101;DHT22;7127;49.372;8.166;2023-07-20T15:33:01;30.80;27.90
14101;DHT22;7127;49.372;8.166;2023-07-20T15:35:28;30.80;28.00
14101;DHT22;7127;49.372;8.166;2023-07-20T15:37:56;30.90;28.20
14101;DHT22;7127;49.372;8.166;2023-07-20T15:40:25;30.90;28.20
14101;DHT22;7127;49.372;8.166;2023-07-20T15:42:51;30.70;28.20
14101;DHT22;7127;49.372;8.166;2023-07-20T15:45:18;30.70;28.30
14101;DHT22;7127;49.372;8.166;2023-07-20T15:47:45;30.70;28.40
14101;DHT22;7127;49.372;8.166;2023-07-20T15:50:12;30.80;28.50